Time;durP1;ratioP1;P1;durP2;ratioP2;P2;SDS_P1;SDS_P2;PMS_P1;PMS_P2;Temp;Humidity;BMP_temperature;BMP_pressure;BME280_temperature;BME280_humidity;BME280_pressure;Samples;Min_cycle;Max_cycle;Signal;HPM_P1;HPM_P2
2021/03/09 00:01:01;;;;;;;3.90;0.50;;;5.50;99.90;;;;;;5037914;28;20237;-84
2021/03/09 00:03:26;;;;;;;3.67;1.67;;;5.50;99.90;;;;;;5032284;28;20260;-83
2021/03/09 00:05:52;;;;;;;0.93;0.53;;;5.50;99.90;;;;;;5049364;28;20194;-83
2021/03/09 00:08:17;;;;;;;2.60;0.57;;;5.40;99.90;;;;;;5031327;28;20241;-84
2021/03/09 00:10:43;;;;;;;1.10;1.10;;;5.50;99.90;;;;;;5032083;28;20218;-83
2021/03/09 00:13:09;;;;;;;0.50;0.50;;;5.50;99.90;;;;;;5047545;28;20226;-84
2021/03/09 00:15:34;;;;;;;0.43;0.43;;;5.50;99.90;;;;;;5049302;28;20182;-84
2021/03/09 00:18:00;;;;;;;0.83;0.53;;;5.60;99.90;;;;;;5031445;28;20182;-83
2021/03/09 00:20:25;;;;;;;1.20;0.77;;;5.60;99.90;;;;;;5031233;28;20590;-84
2021/03/09 00:22:51;;;;;;;0.37;0.37;;;5.50;99.90;;;;;;5033168;28;20217;-84
2021/03/09 00:25:16;;;;;;;1.50;0.50;;;5.60;99.90;;;;;;5033189;28;20809;-82
2021/03/09 00:27:42;;;;;;;0.20;0.20;;;5.50;99.90;;;;;;5032020;28;20264;-84
2021/03/09 00:30:08;;;;;;;0.50;0.50;;;5.60;99.90;;;;;;5030964;28;20218;-83
2021/03/09 00:32:34;;;;;;;0.70;0.70;;;5.50;99.90;;;;;;5032828;28;20256;-83
2021/03/09 00:34:59;;;;;;;0.73;0.67;;;5.60;99.90;;;;;;5033485;28;20182;-83
2021/03/09 00:37:25;;;;;;;0.73;0.50;;;5.60;99.90;;;;;;5032886;28;20567;-84
2021/03/09 00:39:50;;;;;;;0.40;0.40;;;5.60;99.90;;;;;;5031218;28;20236;-84
2021/03/09 00:42:16;;;;;;;0.37;0.37;;;5.60;99.90;;;;;;5032562;28;20272;-84
2021/03/09 00:44:41;;;;;;;4.80;0.30;;;5.60;99.90;;;;;;5047946;28;20361;-84
2021/03/09 00:47:07;;;;;;;0.37;0.30;;;5.60;99.90;;;;;;5046392;28;20237;-83
2021/03/09 00:49:34;;;;;;;0.50;0.50;;;5.60;99.90;;;;;;5031280;28;20216;-85
2021/03/09 00:51:59;;;;;;;0.93;0.53;;;5.60;99.90;;;;;;5030675;28;20277;-83
2021/03/09 00:54:25;;;;;;;0.97;0.70;;;5.50;99.90;;;;;;5023604;28;20266;-84
2021/03/09 00:56:50;;;;;;;0.87;0.67;;;5.50;99.90;;;;;;5031011;28;20206;-83
2021/03/09 00:59:16;;;;;;;1.90;0.90;;;5.50;99.90;;;;;;5033040;28;20205;-84
2021/03/09 01:01:42;;;;;;;0.70;0.70;;;5.50;99.90;;;;;;5031567;28;20208;-84
2021/03/09 01:04:07;;;;;;;1.40;0.87;;;5.50;99.90;;;;;;5031876;28;20206;-83
2021/03/09 01:06:33;;;;;;;3.00;0.87;;;5.50;99.90;;;;;;5031035;28;20183;-83
2021/03/09 01:08:58;;;;;;;0.40;0.40;;;5.50;99.90;;;;;;5032094;28;20666;-82
2021/03/09 01:11:24;;;;;;;0.10;0.10;;;5.60;99.90;;;;;;5030748;28;20239;-84
2021/03/09 01:13:49;;;;;;;0.73;0.67;;;5.60;99.90;;;;;;5047701;28;20206;-84
2021/03/09 01:16:15;;;;;;;0.30;0.30;;;5.60;99.90;;;;;;5032490;28;20167;-83
2021/03/09 01:18:40;;;;;;;1.30;0.60;;;5.60;99.90;;;;;;5031239;28;20186;-84
2021/03/09 01:21:06;;;;;;;1.23;0.80;;;5.60;99.90;;;;;;5031741;28;20216;-84
2021/03/09 01:23:31;;;;;;;1.20;0.60;;;5.60;99.90;;;;;;5031608;28;20226;-84
2021/03/09 01:25:57;;;;;;;0.63;0.63;;;5.50;99.90;;;;;;5031104;28;20276;-83
2021/03/09 01:28:23;;;;;;;0.70;0.70;;;5.50;99.90;;;;;;5045632;28;20215;-83
2021/03/09 01:30:48;;;;;;;0.30;0.30;;;5.50;99.90;;;;;;5030080;28;20218;-84
2021/03/09 01:33:14;;;;;;;0.40;0.37;;;5.50;99.90;;;;;;5031079;28;20305;-83
2021/03/09 01:35:39;;;;;;;1.43;0.80;;;5.50;99.90;;;;;;5030427;28;20786;-83
2021/03/09 01:38:06;;;;;;;2.73;0.60;;;5.50;99.90;;;;;;5031352;28;20182;-84
2021/03/09 01:40:31;;;;;;;1.13;0.70;;;5.30;99.90;;;;;;5029965;28;20592;-84
2021/03/09 01:42:57;;;;;;;0.13;0.13;;;5.30;99.90;;;;;;5032207;28;20206;-84
2021/03/09 01:45:23;;;;;;;2.27;1.37;;;5.30;99.90;;;;;;5030655;28;20190;-84
2021/03/09 01:47:49;;;;;;;1.60;1.17;;;5.30;99.90;;;;;;5029313;28;20193;-83
2021/03/09 01:50:19;;;;;;;1.43;1.20;;;5.10;99.90;;;;;;5030838;28;20292;-82
2021/03/09 01:52:48;;;;;;;1.63;1.10;;;5.00;99.90;;;;;;5046299;28;20244;-83
2021/03/09 01:55:14;;;;;;;0.77;0.30;;;5.00;99.90;;;;;;5034506;28;20196;-83
2021/03/09 01:57:41;;;;;;;2.20;1.10;;;4.90;99.90;;;;;;5034008;28;20193;-83
2021/03/09 02:00:09;;;;;;;0.40;0.40;;;4.80;99.90;;;;;;5038550;28;20232;-82
2021/03/09 02:02:35;;;;;;;5.50;1.53;;;4.80;99.90;;;;;;5033942;28;20220;-84
2021/03/09 02:05:04;;;;;;;4.93;0.97;;;4.70;99.90;;;;;;5050398;28;20196;-83
2021/03/09 02:07:29;;;;;;;0.97;0.97;;;4.60;99.90;;;;;;5049190;28;20184;-83
2021/03/09 02:09:55;;;;;;;1.77;0.87;;;4.50;99.90;;;;;;5032941;28;20235;-85
2021/03/09 02:12:58;;;;;;;0.23;0.23;;;4.50;99.90;;;;;;5048657;28;20226;-83
2021/03/09 02:15:38;;;;;;;0.50;0.50;;;4.40;99.90;;;;;;5009878;28;20584;-83
2021/03/09 02:18:40;;;;;;;0.30;0.30;;;4.40;99.90;;;;;;5032049;28;20326;-83
2021/03/09 02:21:28;;;;;;;2.63;1.67;;;4.40;99.90;;;;;;5030239;28;20198;-83
2021/03/09 02:24:35;;;;;;;0.90;0.87;;;4.40;99.90;;;;;;5048454;28;20212;-82
2021/03/09 02:27:34;;;;;;;1.20;1.20;;;4.30;99.90;;;;;;5006864;28;20293;-84
2021/03/09 02:30:21;;;;;;;1.00;0.70;;;4.30;99.90;;;;;;5029787;28;20620;-83
2021/03/09 02:33:09;;;;;;;1.50;0.97;;;4.30;99.90;;;;;;5028641;28;20668;-84
2021/03/09 02:35:39;;;;;;;0.80;0.80;;;4.40;99.90;;;;;;5018118;28;20204;-84
2021/03/09 02:38:08;;;;;;;0.53;0.53;;;4.40;99.90;;;;;;5030416;28;20596;-84
2021/03/09 02:40:35;;;;;;;1.57;1.17;;;4.40;99.90;;;;;;5030034;28;20636;-83
2021/03/09 02:43:15;;;;;;;0.73;0.73;;;4.30;99.90;;;;;;5031441;28;20233;-86
2021/03/09 02:45:43;;;;;;;0.63;0.40;;;4.20;99.90;;;;;;5031474;28;20271;-84
2021/03/09 02:48:11;;;;;;;1.30;0.93;;;4.20;99.90;;;;;;5025273;28;20274;-83
2021/03/09 02:50:37;;;;;;;2.37;1.50;;;4.20;99.90;;;;;;5029492;28;20288;-83
2021/03/09 02:53:11;;;;;;;0.93;0.70;;;4.20;99.90;;;;;;5035318;28;20299;-83
2021/03/09 02:55:38;;;;;;;0.30;0.30;;;4.10;99.90;;;;;;5034455;28;20201;-83
2021/03/09 02:58:08;;;;;;;1.33;0.83;;;4.10;99.90;;;;;;5035488;28;20496;-84
2021/03/09 03:00:36;;;;;;;1.13;0.97;;;4.10;99.90;;;;;;5032744;28;20271;-84
2021/03/09 03:03:08;;;;;;;0.97;0.80;;;4.00;99.90;;;;;;5050478;28;20344;-84
2021/03/09 03:05:38;;;;;;;0.20;0.20;;;4.10;99.90;;;;;;5034010;28;20192;-83
2021/03/09 03:08:07;;;;;;;2.07;1.37;;;4.00;99.90;;;;;;5034755;28;20182;-83
2021/03/09 03:10:34;;;;;;;1.03;0.67;;;4.00;99.90;;;;;;5049784;28;20248;-84
2021/03/09 03:13:01;;;;;;;1.00;0.93;;;3.90;99.90;;;;;;5032375;28;20221;-85
2021/03/09 03:15:29;;;;;;;1.80;0.70;;;3.90;99.90;;;;;;5034478;28;20192;-85
2021/03/09 03:17:55;;;;;;;0.37;0.37;;;3.80;99.90;;;;;;5036154;28;20192;-85
2021/03/09 03:20:22;;;;;;;3.10;0.97;;;3.80;99.90;;;;;;5035478;28;20194;-85
2021/03/09 03:22:49;;;;;;;2.27;0.63;;;3.70;99.90;;;;;;5034947;28;20224;-86
2021/03/09 03:25:15;;;;;;;2.93;0.93;;;3.70;99.90;;;;;;5026823;28;20178;-85
2021/03/09 03:27:42;;;;;;;1.70;1.37;;;3.70;99.90;;;;;;5035463;28;20220;-85
2021/03/09 03:30:11;;;;;;;1.53;0.80;;;3.60;99.90;;;;;;5034439;28;20257;-85
2021/03/09 03:32:37;;;;;;;4.03;0.50;;;3.60;99.90;;;;;;5034555;28;20276;-85
2021/03/09 03:35:05;;;;;;;1.13;1.10;;;3.60;99.90;;;;;;5034152;28;20187;-85
2021/03/09 03:37:31;;;;;;;2.03;1.40;;;3.60;99.90;;;;;;5034036;28;20190;-85
2021/03/09 03:39:57;;;;;;;0.73;0.73;;;3.50;99.90;;;;;;5034701;28;20203;-85
2021/03/09 03:42:23;;;;;;;0.67;0.43;;;3.50;99.90;;;;;;5033890;28;20679;-85
2021/03/09 03:44:49;;;;;;;1.47;0.77;;;3.40;99.90;;;;;;5035078;28;20269;-85
2021/03/09 03:47:15;;;;;;;4.43;1.97;;;3.50;99.90;;;;;;5033943;28;20683;-83
2021/03/09 03:49:41;;;;;;;2.57;1.13;;;3.40;99.90;;;;;;5043971;28;20218;-86
2021/03/09 03:52:14;;;;;;;0.20;0.20;;;3.40;99.90;;;;;;5033748;28;20189;-85
2021/03/09 03:55:00;;;;;;;0.57;0.57;;;3.50;99.90;;;;;;5033513;28;20206;-85
2021/03/09 03:57:41;;;;;;;0.40;0.40;;;3.50;99.90;;;;;;5036763;28;20190;-85
2021/03/09 04:00:07;;;;;;;0.77;0.70;;;3.50;99.90;;;;;;5040557;28;20278;-85
2021/03/09 04:02:36;;;;;;;0.40;0.33;;;3.40;99.90;;;;;;5036356;28;20228;-85
2021/03/09 04:05:06;;;;;;;1.77;0.80;;;3.40;99.90;;;;;;5034380;28;20213;-85
2021/03/09 04:07:33;;;;;;;2.20;0.70;;;3.40;99.90;;;;;;5034962;28;20212;-85
2021/03/09 04:10:00;;;;;;;0.37;0.30;;;3.40;99.90;;;;;;5034008;28;20230;-86
2021/03/09 04:12:28;;;;;;;2.27;0.90;;;3.40;99.90;;;;;;5034358;28;20223;-85
2021/03/09 04:14:57;;;;;;;0.80;0.80;;;3.40;99.90;;;;;;5034159;28;20240;-85
2021/03/09 04:17:24;;;;;;;0.90;0.80;;;3.50;99.90;;;;;;5035703;28;20175;-84
2021/03/09 04:19:52;;;;;;;0.73;0.73;;;3.40;99.90;;;;;;5033541;28;20194;-84
2021/03/09 04:22:18;;;;;;;1.30;1.03;;;3.40;99.90;;;;;;5034212;28;20705;-85
2021/03/09 04:24:46;;;;;;;1.07;1.03;;;3.40;99.90;;;;;;5020623;28;20198;-86
2021/03/09 04:27:20;;;;;;;0.73;0.70;;;3.30;99.90;;;;;;5033471;28;20185;-85
2021/03/09 04:29:55;;;;;;;1.23;0.83;;;3.40;99.90;;;;;;5034231;28;20210;-86
2021/03/09 04:32:22;;;;;;;1.20;1.07;;;3.40;99.90;;;;;;5033596;28;20205;-85
2021/03/09 04:34:49;;;;;;;2.10;1.13;;;3.40;99.90;;;;;;5029380;28;20188;-85
2021/03/09 04:37:15;;;;;;;4.07;0.93;;;3.50;99.90;;;;;;5026977;28;20207;-86
2021/03/09 04:39:42;;;;;;;2.00;1.80;;;3.40;99.90;;;;;;5034048;28;20187;-85
2021/03/09 04:42:09;;;;;;;0.83;0.77;;;3.40;99.90;;;;;;5032929;28;20223;-85
2021/03/09 04:44:35;;;;;;;1.03;0.97;;;3.50;99.90;;;;;;5033109;28;20186;-85
2021/03/09 04:47:02;;;;;;;1.07;0.30;;;3.50;99.90;;;;;;5034291;28;20209;-85
2021/03/09 04:49:33;;;;;;;1.80;0.93;;;3.50;99.90;;;;;;5026069;28;20261;-85
2021/03/09 04:51:59;;;;;;;1.80;0.73;;;3.50;99.90;;;;;;5049451;28;20185;-85
2021/03/09 04:54:26;;;;;;;0.73;0.73;;;3.50;99.90;;;;;;5023452;28;20218;-85
2021/03/09 04:56:51;;;;;;;0.97;0.97;;;3.50;99.90;;;;;;5031446;28;20176;-86
2021/03/09 04:59:17;;;;;;;0.33;0.27;;;3.50;99.90;;;;;;5047660;28;20223;-85
2021/03/09 05:01:43;;;;;;;4.67;1.43;;;3.50;99.90;;;;;;5032115;28;20271;-85
2021/03/09 05:04:09;;;;;;;0.30;0.30;;;3.50;99.90;;;;;;5034384;28;20208;-86
2021/03/09 05:06:34;;;;;;;1.43;0.50;;;3.50;99.90;;;;;;5033430;28;20190;-85
2021/03/09 05:09:00;;;;;;;0.77;0.73;;;3.60;99.90;;;;;;5050481;28;20213;-86
2021/03/09 05:11:29;;;;;;;2.60;0.60;;;3.60;99.90;;;;;;5033566;28;20267;-85
2021/03/09 05:13:56;;;;;;;1.57;0.80;;;3.60;99.90;;;;;;5034023;28;20226;-85
2021/03/09 05:16:21;;;;;;;1.17;0.87;;;3.60;99.90;;;;;;5032972;28;20271;-85
2021/03/09 05:18:47;;;;;;;1.10;0.57;;;3.60;99.90;;;;;;5033740;28;20223;-86
2021/03/09 05:21:13;;;;;;;3.00;0.60;;;3.70;99.90;;;;;;5032910;28;20195;-86
2021/03/09 05:23:38;;;;;;;0.30;0.30;;;3.70;99.90;;;;;;5033474;28;20260;-85
2021/03/09 05:26:04;;;;;;;1.10;0.70;;;3.70;99.90;;;;;;5033209;28;20179;-85
2021/03/09 05:28:29;;;;;;;3.93;0.27;;;3.70;99.90;;;;;;5034076;28;20220;-85
2021/03/09 05:30:55;;;;;;;3.60;0.93;;;3.70;99.90;;;;;;5032364;28;20215;-86
2021/03/09 05:33:20;;;;;;;1.23;0.73;;;3.80;99.90;;;;;;5033070;28;20207;-84
2021/03/09 05:35:46;;;;;;;1.60;1.47;;;3.80;99.90;;;;;;5032522;28;20185;-86
2021/03/09 05:38:11;;;;;;;0.57;0.57;;;3.90;99.90;;;;;;5032298;28;20279;-85
2021/03/09 05:40:37;;;;;;;0.73;0.43;;;3.80;99.90;;;;;;5031699;28;20200;-85
2021/03/09 05:43:04;;;;;;;2.53;1.27;;;3.80;99.90;;;;;;5031425;28;20249;-85
2021/03/09 05:45:30;;;;;;;0.53;0.53;;;3.80;99.90;;;;;;5031961;28;20278;-84
2021/03/09 05:47:58;;;;;;;0.77;0.77;;;3.80;99.90;;;;;;5033046;28;20234;-84
2021/03/09 05:50:25;;;;;;;0.20;0.20;;;3.80;99.90;;;;;;5047373;28;20266;-84
2021/03/09 05:52:51;;;;;;;1.17;1.00;;;3.80;99.90;;;;;;5022670;28;20244;-84
2021/03/09 05:55:17;;;;;;;0.20;0.20;;;3.80;99.90;;;;;;5022666;28;20807;-83
2021/03/09 05:57:43;;;;;;;0.67;0.30;;;3.90;99.90;;;;;;5029768;28;20182;-84
2021/03/09 06:00:11;;;;;;;1.00;0.87;;;3.90;99.90;;;;;;5034713;28;20745;-82
2021/03/09 06:02:36;;;;;;;2.80;1.27;;;3.90;99.90;;;;;;5021261;28;20208;-83
2021/03/09 06:05:04;;;;;;;0.20;0.20;;;4.00;99.90;;;;;;5032121;28;20247;-84
2021/03/09 06:07:30;;;;;;;1.33;1.27;;;4.00;99.90;;;;;;5035899;28;20673;-83
2021/03/09 06:09:55;;;;;;;1.63;1.17;;;4.10;99.90;;;;;;5029526;28;20220;-84
2021/03/09 06:12:24;;;;;;;0.43;0.43;;;4.10;99.90;;;;;;5037334;28;20313;-83
2021/03/09 06:14:55;;;;;;;0.60;0.60;;;4.10;99.90;;;;;;5033419;28;20179;-85
2021/03/09 06:17:35;;;;;;;0.10;0.10;;;4.10;99.90;;;;;;5023188;28;20185;-85
2021/03/09 06:20:02;;;;;;;0.53;0.20;;;4.20;99.90;;;;;;5031560;28;20190;-84
2021/03/09 06:22:42;;;;;;;1.63;0.50;;;4.30;99.90;;;;;;5033124;28;20212;-85
2021/03/09 06:25:11;;;;;;;1.00;0.90;;;4.30;99.90;;;;;;5036042;28;20187;-84
2021/03/09 06:27:37;;;;;;;0.67;0.67;;;4.40;99.90;;;;;;5041878;28;20524;-85
2021/03/09 06:30:06;;;;;;;1.43;0.63;;;4.40;99.90;;;;;;5034314;28;20222;-84
2021/03/09 06:32:41;;;;;;;0.47;0.23;;;4.40;99.90;;;;;;5035646;28;20577;-85
2021/03/09 06:35:24;;;;;;;0.87;0.83;;;4.40;99.90;;;;;;5035303;28;20175;-85
2021/03/09 06:37:49;;;;;;;0.57;0.53;;;4.50;99.90;;;;;;5036390;28;20871;-84
2021/03/09 06:40:15;;;;;;;0.40;0.40;;;4.50;99.90;;;;;;5030828;28;20186;-84
2021/03/09 06:42:42;;;;;;;0.40;0.40;;;4.60;99.90;;;;;;5045333;28;20584;-84
2021/03/09 06:45:14;;;;;;;0.87;0.87;;;4.70;99.90;;;;;;5048774;28;20190;-83
2021/03/09 06:47:39;;;;;;;2.63;0.87;;;4.80;99.90;;;;;;5030186;28;20669;-83
2021/03/09 06:50:07;;;;;;;0.50;0.50;;;4.80;99.90;;;;;;5032164;28;20217;-83
2021/03/09 06:52:33;;;;;;;1.43;1.33;;;4.90;99.90;;;;;;5038987;28;20209;-83
2021/03/09 06:54:59;;;;;;;2.73;1.03;;;4.90;99.90;;;;;;5030509;28;20218;-83
2021/03/09 06:57:25;;;;;;;1.50;0.73;;;5.10;99.90;;;;;;5046522;28;20584;-83
2021/03/09 06:59:53;;;;;;;0.90;0.73;;;5.10;99.90;;;;;;5032398;28;20188;-83
2021/03/09 07:02:20;;;;;;;0.57;0.57;;;5.10;99.90;;;;;;5036014;28;20692;-83
2021/03/09 07:04:48;;;;;;;0.30;0.30;;;5.10;99.90;;;;;;5035333;28;20208;-83
2021/03/09 07:07:15;;;;;;;0.50;0.50;;;5.20;99.90;;;;;;5034308;28;20177;-82
2021/03/09 07:09:56;;;;;;;0.73;0.67;;;5.10;99.90;;;;;;5047878;28;20251;-83
2021/03/09 07:12:23;;;;;;;0.63;0.63;;;5.10;99.90;;;;;;5030107;28;20213;-83
2021/03/09 07:14:50;;;;;;;1.53;1.43;;;5.00;99.90;;;;;;5025570;28;20272;-83
2021/03/09 07:17:20;;;;;;;0.73;0.57;;;5.00;99.90;;;;;;5031958;28;20173;-83
2021/03/09 07:19:46;;;;;;;1.13;0.80;;;5.00;99.90;;;;;;5029551;28;20191;-82
2021/03/09 07:22:13;;;;;;;0.60;0.60;;;5.10;99.90;;;;;;5031678;28;20577;-82
2021/03/09 07:24:49;;;;;;;0.30;0.30;;;5.20;99.90;;;;;;5031068;28;20216;-83
2021/03/09 07:27:24;;;;;;;0.60;0.60;;;5.30;99.90;;;;;;5030684;28;20184;-83
2021/03/09 07:29:54;;;;;;;1.47;0.90;;;5.40;99.90;;;;;;5029030;28;20220;-82
2021/03/09 07:32:27;;;;;;;1.13;0.73;;;5.40;99.90;;;;;;5034159;28;20602;-83
2021/03/09 07:34:54;;;;;;;1.90;1.00;;;5.70;99.90;;;;;;5033978;28;20514;-83
2021/03/09 07:37:21;;;;;;;1.43;1.33;;;5.80;99.90;;;;;;5031255;28;20186;-83
2021/03/09 07:39:48;;;;;;;2.63;1.47;;;5.90;99.90;;;;;;5030339;28;20727;-83
2021/03/09 07:42:14;;;;;;;0.40;0.40;;;6.00;99.90;;;;;;5032855;28;20256;-84
2021/03/09 07:44:42;;;;;;;5.37;0.83;;;6.10;99.90;;;;;;5029946;28;20677;-86
2021/03/09 07:47:09;;;;;;;1.80;1.10;;;6.40;99.90;;;;;;5034567;28;20248;-83
2021/03/09 07:49:36;;;;;;;0.73;0.53;;;6.50;99.90;;;;;;5034133;28;20292;-83
2021/03/09 07:52:12;;;;;;;0.40;0.40;;;6.70;99.90;;;;;;5035472;28;20254;-85
2021/03/09 07:54:38;;;;;;;1.57;1.43;;;6.80;99.90;;;;;;5029908;28;20182;-83
2021/03/09 07:57:17;;;;;;;0.97;0.87;;;6.90;99.90;;;;;;5030905;28;20232;-83
2021/03/09 07:59:56;;;;;;;1.60;1.33;;;6.90;99.90;;;;;;5028020;28;20662;-83
2021/03/09 08:02:43;;;;;;;1.63;1.53;;;6.80;99.90;;;;;;5043593;28;20264;-83
2021/03/09 08:05:15;;;;;;;0.93;0.80;;;6.70;99.90;;;;;;5034549;28;20205;-82
2021/03/09 08:07:51;;;;;;;1.60;0.70;;;6.70;99.90;;;;;;5038352;28;20206;-82
2021/03/09 08:10:39;;;;;;;0.37;0.30;;;6.80;99.90;;;;;;5031713;28;20667;-83
2021/03/09 08:13:07;;;;;;;0.60;0.60;;;6.80;99.90;;;;;;5037044;28;20793;-84
2021/03/09 08:15:37;;;;;;;1.27;0.77;;;7.00;99.90;;;;;;5033717;28;20329;-85
2021/03/09 08:18:19;;;;;;;1.70;0.87;;;7.10;99.90;;;;;;5037108;28;20187;-83
2021/03/09 08:20:52;;;;;;;3.37;1.47;;;7.10;99.90;;;;;;5050980;28;20179;-83
2021/03/09 08:23:36;;;;;;;1.33;0.80;;;7.20;99.90;;;;;;5041786;28;20229;-84
2021/03/09 08:26:24;;;;;;;0.43;0.40;;;7.30;99.90;;;;;;5040178;28;20192;-83
2021/03/09 08:28:50;;;;;;;5.33;1.23;;;7.30;99.90;;;;;;5016334;28;20194;-84
2021/03/09 08:31:22;;;;;;;1.93;0.67;;;7.40;99.90;;;;;;5035894;28;20218;-83
2021/03/09 08:34:12;;;;;;;1.90;0.90;;;7.40;99.90;;;;;;5035318;28;20229;-84
2021/03/09 08:36:38;;;;;;;4.40;3.40;;;7.30;99.90;;;;;;5019014;28;20226;-84
2021/03/09 08:41:34;;;;;;;1.40;0.57;;;7.50;99.90;;;;;;5042335;28;20672;-83
2021/03/09 08:44:19;;;;;;;0.73;0.37;;;7.50;99.90;;;;;;5033113;28;20210;-82
2021/03/09 08:46:56;;;;;;;0.77;0.77;;;7.80;99.90;;;;;;5030853;28;20778;-85
2021/03/09 08:49:44;;;;;;;1.53;0.60;;;8.00;99.90;;;;;;5052046;28;20186;-85
2021/03/09 08:52:19;;;;;;;2.30;1.03;;;8.30;99.90;;;;;;5044993;28;20293;-83
2021/03/09 08:54:45;;;;;;;1.40;1.30;;;8.40;99.90;;;;;;5041411;28;20192;-86
2021/03/09 08:57:18;;;;;;;1.67;1.17;;;8.60;99.90;;;;;;5031054;28;20269;-83
2021/03/09 08:59:49;;;;;;;2.07;1.07;;;8.70;99.90;;;;;;5031772;28;20249;-86
2021/03/09 09:02:18;;;;;;;0.47;0.47;;;8.70;99.90;;;;;;5030623;28;20220;-86
2021/03/09 09:05:06;;;;;;;1.23;0.93;;;8.80;99.90;;;;;;5046907;28;20200;-85
2021/03/09 09:07:36;;;;;;;0.67;0.67;;;8.70;99.90;;;;;;5033205;28;20195;-85
2021/03/09 09:10:25;;;;;;;1.80;0.67;;;8.90;99.90;;;;;;5033068;28;20216;-85
2021/03/09 09:12:54;;;;;;;0.70;0.70;;;9.10;99.90;;;;;;5037223;28;20585;-85
2021/03/09 09:15:21;;;;;;;1.33;0.80;;;9.20;99.90;;;;;;5028021;28;20186;-85
2021/03/09 09:17:57;;;;;;;0.70;0.70;;;9.20;99.90;;;;;;5028043;28;20186;-83
2021/03/09 09:20:36;;;;;;;1.53;1.43;;;9.40;99.90;;;;;;5025893;28;20565;-83
2021/03/09 09:23:06;;;;;;;1.37;1.13;;;9.50;99.90;;;;;;5042162;28;20245;-83
2021/03/09 09:25:36;;;;;;;1.30;1.10;;;9.40;99.90;;;;;;5028157;28;20187;-83
2021/03/09 09:28:02;;;;;;;1.07;0.60;;;9.60;99.90;;;;;;5021557;28;20182;-83
2021/03/09 09:30:43;;;;;;;0.70;0.53;;;9.60;99.90;;;;;;5024036;28;20269;-84
2021/03/09 09:33:11;;;;;;;0.47;0.47;;;9.70;99.90;;;;;;5038620;28;20703;-83
2021/03/09 09:35:38;;;;;;;2.43;1.03;;;9.70;99.90;;;;;;5029973;28;20263;-84
2021/03/09 09:38:13;;;;;;;0.87;0.77;;;9.80;99.90;;;;;;5022401;28;20187;-83
2021/03/09 09:40:41;;;;;;;1.77;0.90;;;9.90;99.90;;;;;;5021658;28;20193;-83
2021/03/09 09:43:09;;;;;;;1.10;0.90;;;9.70;99.90;;;;;;5018319;28;20295;-84
2021/03/09 09:45:43;;;;;;;1.67;1.10;;;9.60;99.90;;;;;;5027060;28;20734;-83
2021/03/09 09:48:13;;;;;;;1.17;0.47;;;9.70;99.90;;;;;;5028595;28;20676;-83
2021/03/09 09:50:47;;;;;;;2.30;0.80;;;9.80;99.90;;;;;;5038204;28;20267;-84
2021/03/09 09:53:27;;;;;;;0.83;0.60;;;9.90;99.90;;;;;;5030868;28;20701;-84
2021/03/09 09:55:54;;;;;;;0.93;0.67;;;10.00;99.90;;;;;;5021539;28;20183;-85
2021/03/09 09:58:19;;;;;;;3.00;0.70;;;10.00;99.90;;;;;;5025911;28;20196;-82
2021/03/09 10:00:53;;;;;;;1.23;0.90;;;10.10;99.90;;;;;;5006994;28;20762;-83
2021/03/09 10:03:20;;;;;;;2.03;0.80;;;10.10;99.90;;;;;;5018198;28;20245;-84
2021/03/09 10:05:46;;;;;;;1.67;1.00;;;10.20;99.90;;;;;;5017987;28;20193;-83
2021/03/09 10:08:31;;;;;;;6.57;1.10;;;10.30;99.90;;;;;;5029671;28;20824;-82
2021/03/09 10:10:59;;;;;;;1.50;0.87;;;10.40;99.90;;;;;;5028363;28;20200;-83
2021/03/09 10:13:25;;;;;;;2.47;0.83;;;10.50;99.90;;;;;;5027393;28;20225;-83
2021/03/09 10:15:51;;;;;;;0.30;0.30;;;10.70;99.90;;;;;;5023695;28;20189;-84
2021/03/09 10:18:32;;;;;;;2.90;0.90;;;10.80;99.90;;;;;;5028435;28;20666;-84
2021/03/09 10:21:08;;;;;;;2.77;1.37;;;10.90;99.90;;;;;;5027286;28;20185;-85
2021/03/09 10:24:00;;;;;;;0.70;0.67;;;10.70;99.90;;;;;;5020927;28;20210;-85
2021/03/09 10:26:27;;;;;;;1.33;1.23;;;10.90;99.90;;;;;;5021190;28;20190;-84
2021/03/09 10:29:06;;;;;;;0.63;0.63;;;10.70;99.90;;;;;;5031155;28;20251;-86
2021/03/09 10:31:41;;;;;;;1.03;1.03;;;10.80;99.90;;;;;;5032401;28;20209;-87
2021/03/09 10:34:07;;;;;;;4.90;1.97;;;10.80;99.90;;;;;;5037784;28;20205;-84
2021/03/09 10:36:54;;;;;;;3.00;2.03;;;10.50;99.90;;;;;;5030677;28;20557;-84
2021/03/09 10:39:21;;;;;;;4.43;1.60;;;10.40;99.90;;;;;;5025578;28;20556;-84
2021/03/09 10:41:47;;;;;;;0.40;0.40;;;10.50;99.90;;;;;;5029433;28;20525;-85
2021/03/09 10:44:29;;;;;;;1.57;1.47;;;10.50;99.90;;;;;;5028521;28;20811;-85
2021/03/09 10:46:55;;;;;;;2.37;1.37;;;10.50;99.90;;;;;;5030904;28;20240;-84
2021/03/09 10:49:21;;;;;;;0.40;0.37;;;10.30;99.90;;;;;;5029560;28;20197;-84
2021/03/09 10:51:46;;;;;;;1.47;1.10;;;10.30;99.90;;;;;;5021934;28;20530;-84
2021/03/09 10:54:12;;;;;;;1.03;0.93;;;10.30;99.90;;;;;;5028500;28;20592;-85
2021/03/09 10:56:39;;;;;;;0.33;0.27;;;10.50;99.90;;;;;;5030690;28;20619;-84
2021/03/09 10:59:04;;;;;;;0.43;0.40;;;10.70;99.90;;;;;;5037150;28;20277;-84
2021/03/09 11:01:31;;;;;;;1.13;0.87;;;11.00;99.90;;;;;;5025382;28;20344;-83
2021/03/09 11:03:57;;;;;;;2.20;0.70;;;10.90;99.90;;;;;;5027935;28;20213;-84
2021/03/09 11:06:22;;;;;;;0.30;0.30;;;10.50;99.90;;;;;;5029792;28;20204;-85
2021/03/09 11:08:48;;;;;;;0.37;0.37;;;10.30;99.90;;;;;;5031507;28;20212;-84
2021/03/09 11:11:13;;;;;;;0.60;0.60;;;10.00;99.90;;;;;;5030445;28;20579;-84
2021/03/09 11:13:39;;;;;;;6.10;0.63;;;10.00;99.90;;;;;;5028440;28;20212;-83
2021/03/09 11:16:04;;;;;;;2.70;0.60;;;10.00;99.90;;;;;;5034564;28;20935;-83
2021/03/09 11:18:30;;;;;;;0.63;0.63;;;9.90;99.90;;;;;;5034333;28;20181;-84
2021/03/09 11:20:55;;;;;;;0.70;0.70;;;9.80;99.90;;;;;;5033402;28;20193;-84
2021/03/09 11:23:21;;;;;;;2.20;0.80;;;9.80;99.90;;;;;;5035156;28;20237;-84
2021/03/09 11:25:47;;;;;;;0.30;0.30;;;9.60;99.90;;;;;;5035753;28;21598;-84
2021/03/09 11:28:12;;;;;;;2.53;0.60;;;9.70;99.90;;;;;;5033763;28;20181;-83
2021/03/09 11:30:38;;;;;;;2.80;0.90;;;9.80;99.90;;;;;;5040383;28;20206;-83
2021/03/09 11:33:03;;;;;;;1.40;0.50;;;9.70;99.90;;;;;;5033435;28;20202;-84
2021/03/09 11:35:29;;;;;;;0.40;0.40;;;9.80;99.90;;;;;;5036110;28;20182;-84
2021/03/09 11:37:55;;;;;;;0.40;0.40;;;9.90;99.90;;;;;;5032845;28;20611;-85
2021/03/09 11:40:21;;;;;;;0.83;0.83;;;10.10;99.90;;;;;;5033767;28;20186;-85
2021/03/09 11:42:47;;;;;;;1.83;0.80;;;10.30;99.90;;;;;;5029957;28;20271;-84
2021/03/09 11:45:13;;;;;;;2.40;1.13;;;10.30;99.90;;;;;;5028556;28;20185;-84
2021/03/09 11:47:38;;;;;;;1.17;1.07;;;10.30;99.90;;;;;;5030228;28;20207;-84
2021/03/09 11:50:05;;;;;;;0.70;0.70;;;10.40;99.90;;;;;;5031420;28;20200;-84
2021/03/09 11:52:31;;;;;;;0.70;0.70;;;10.40;99.90;;;;;;5030072;28;20242;-84
2021/03/09 11:54:59;;;;;;;0.20;0.20;;;10.40;99.90;;;;;;5048078;28;20195;-84
2021/03/09 11:57:25;;;;;;;0.63;0.60;;;10.60;99.90;;;;;;5037560;28;20237;-84
2021/03/09 11:59:52;;;;;;;0.53;0.53;;;10.40;99.90;;;;;;5047088;28;20185;-84
2021/03/09 12:02:18;;;;;;;3.07;0.90;;;10.70;99.90;;;;;;5029755;28;20202;-86
2021/03/09 12:04:43;;;;;;;0.67;0.67;;;11.00;99.90;;;;;;5033005;28;20190;-84
2021/03/09 12:07:10;;;;;;;1.27;1.17;;;10.70;99.90;;;;;;5033299;28;20221;-84
2021/03/09 12:09:35;;;;;;;0.30;0.30;;;10.60;99.90;;;;;;5032707;28;20703;-83
2021/03/09 12:12:01;;;;;;;4.10;0.60;;;10.40;99.90;;;;;;5033093;28;20198;-84
2021/03/09 12:14:26;;;;;;;1.17;1.00;;;10.60;99.90;;;;;;5030769;28;20189;-84
2021/03/09 12:16:52;;;;;;;0.57;0.57;;;10.50;99.90;;;;;;5036430;28;21021;-84
2021/03/09 12:19:17;;;;;;;3.10;1.77;;;10.50;99.90;;;;;;5043063;28;20202;-83
2021/03/09 12:21:43;;;;;;;0.83;0.83;;;10.50;99.90;;;;;;5023744;28;20223;-84
2021/03/09 12:24:09;;;;;;;0.87;0.70;;;10.50;99.90;;;;;;5031871;28;20216;-84
2021/03/09 12:26:34;;;;;;;0.77;0.60;;;10.50;99.90;;;;;;5034286;28;20182;-84
2021/03/09 12:29:00;;;;;;;0.73;0.27;;;10.60;99.90;;;;;;5047891;28;20177;-83
2021/03/09 12:31:26;;;;;;;0.47;0.47;;;10.50;99.90;;;;;;5030954;28;20233;-83
2021/03/09 12:33:52;;;;;;;0.37;0.37;;;10.50;99.90;;;;;;5031646;28;20671;-84
2021/03/09 12:36:18;;;;;;;0.40;0.40;;;10.50;99.90;;;;;;5032953;28;20190;-83
2021/03/09 12:38:43;;;;;;;0.13;0.13;;;10.60;99.90;;;;;;5033106;28;20551;-84
2021/03/09 12:41:09;;;;;;;3.93;0.40;;;10.60;99.90;;;;;;5032305;28;20559;-83
2021/03/09 12:43:35;;;;;;;4.13;0.70;;;10.50;99.90;;;;;;5047414;28;20205;-84
2021/03/09 12:46:00;;;;;;;0.20;0.20;;;10.30;99.90;;;;;;5032465;28;20196;-83
2021/03/09 12:48:26;;;;;;;0.10;0.10;;;10.00;99.90;;;;;;5031676;28;20200;-84
2021/03/09 12:50:51;;;;;;;0.10;0.10;;;9.80;99.90;;;;;;5046991;28;20206;-83
2021/03/09 12:53:17;;;;;;;0.33;0.33;;;9.70;99.90;;;;;;5030744;28;20240;-84
2021/03/09 12:55:43;;;;;;;0.50;0.50;;;9.50;99.90;;;;;;5032114;28;20613;-84
2021/03/09 12:58:08;;;;;;;0.77;0.33;;;9.60;99.90;;;;;;5030427;28;20195;-84
2021/03/09 13:00:34;;;;;;;0.47;0.20;;;9.50;99.90;;;;;;5036709;28;20201;-84
2021/03/09 13:02:59;;;;;;;0.13;0.13;;;9.30;99.90;;;;;;5047767;28;20219;-84
2021/03/09 13:05:25;;;;;;;0.20;0.20;;;9.30;99.90;;;;;;5033383;28;20254;-84
2021/03/09 13:07:51;;;;;;;0.10;0.10;;;9.20;99.90;;;;;;5030582;28;20196;-83